Terminal Aerodrome Forecast
Issued by NWS

Home | Current Version | Previous Version | Text Only | Print | Product List | Glossary On
Versions: 1 2 3 4 5 6 7 8 9 10 11 12 13 14 15
000
FTUS45 KFGZ 250544
TAFPGA
TAF
KPGA 250544Z 2506/2606 28012KT P6SM FEW060 BKN130
     FM251500 30010G20KT P6SM BKN130
     FM251900 27022G35KT P6SM SCT040 OVC070
     FM260300 32012KT P6SM SCT050=

USA.gov is the U.S. government's official web portal to all federal, state and local government web resources and services.